sensor_id;sensor_type;location;lat;lon;timestamp;P1;durP1;ratioP1;P2;durP2;ratioP2
17850;SDS011;9051;51.548;14.348;2023-03-01T18:55:21;16.93;;;11.77;;
17850;SDS011;9051;51.548;14.348;2023-03-01T18:57:53;17.03;;;11.27;;
17850;SDS011;9051;51.548;14.348;2023-03-01T19:00:25;18.70;;;12.07;;
17850;SDS011;9051;51.548;14.348;2023-03-01T19:02:57;16.93;;;10.93;;
17850;SDS011;9051;51.548;14.348;2023-03-01T19:05:30;18.17;;;11.30;;
17850;SDS011;9051;51.548;14.348;2023-03-01T19:08:04;18.03;;;12.07;;
17850;SDS011;9051;51.548;14.348;2023-03-01T19:10:36;17.90;;;12.13;;
17850;SDS011;9051;51.548;14.348;2023-03-01T19:13:08;18.77;;;12.13;;
17850;SDS011;9051;51.548;14.348;2023-03-01T19:15:40;19.80;;;12.10;;
17850;SDS011;9051;51.548;14.348;2023-03-01T19:18:12;22.20;;;14.47;;
17850;SDS011;9051;51.548;14.348;2023-03-01T19:20:45;20.03;;;13.60;;
17850;SDS011;9051;51.548;14.348;2023-03-01T19:23:18;21.63;;;13.87;;
17850;SDS011;9051;51.548;14.348;2023-03-01T19:25:50;25.33;;;13.67;;
17850;SDS011;9051;51.548;14.348;2023-03-01T19:28:22;22.23;;;12.70;;
17850;SDS011;9051;51.548;14.348;2023-03-01T19:30:57;20.77;;;13.07;;
17850;SDS011;9051;51.548;14.348;2023-03-01T19:33:31;16.33;;;12.50;;
17850;SDS011;9051;51.548;14.348;2023-03-01T19:36:05;20.90;;;13.20;;
17850;SDS011;9051;51.548;14.348;2023-03-01T19:38:40;21.20;;;12.17;;
17850;SDS011;9051;51.548;14.348;2023-03-01T19:41:13;17.10;;;11.03;;
17850;SDS011;9051;51.548;14.348;2023-03-01T19:43:47;17.43;;;11.70;;
17850;SDS011;9051;51.548;14.348;2023-03-01T19:46:19;20.40;;;12.30;;
17850;SDS011;9051;51.548;14.348;2023-03-01T19:48:53;18.33;;;12.30;;
17850;SDS011;9051;51.548;14.348;2023-03-01T19:51:25;19.73;;;12.73;;
17850;SDS011;9051;51.548;14.348;2023-03-01T19:53:58;19.17;;;12.93;;
17850;SDS011;9051;51.548;14.348;2023-03-01T19:56:30;20.50;;;13.00;;
17850;SDS011;9051;51.548;14.348;2023-03-01T19:59:03;24.17;;;14.70;;
17850;SDS011;9051;51.548;14.348;2023-03-01T20:01:35;23.57;;;14.10;;
17850;SDS011;9051;51.548;14.348;2023-03-01T20:04:11;25.67;;;15.53;;
17850;SDS011;9051;51.548;14.348;2023-03-01T20:06:43;20.17;;;13.40;;
17850;SDS011;9051;51.548;14.348;2023-03-01T20:09:18;26.17;;;15.07;;
17850;SDS011;9051;51.548;14.348;2023-03-01T20:11:50;22.73;;;14.50;;
17850;SDS011;9051;51.548;14.348;2023-03-01T20:14:22;21.50;;;13.10;;
17850;SDS011;9051;51.548;14.348;2023-03-01T20:16:56;18.17;;;11.97;;
17850;SDS011;9051;51.548;14.348;2023-03-01T20:19:28;20.13;;;12.57;;
17850;SDS011;9051;51.548;14.348;2023-03-01T20:22:00;18.27;;;11.77;;
17850;SDS011;9051;51.548;14.348;2023-03-01T20:24:34;20.07;;;12.40;;
17850;SDS011;9051;51.548;14.348;2023-03-01T20:27:05;21.63;;;13.43;;
17850;SDS011;9051;51.548;14.348;2023-03-01T20:29:38;22.07;;;13.53;;
17850;SDS011;9051;51.548;14.348;2023-03-01T20:32:10;24.53;;;13.80;;
17850;SDS011;9051;51.548;14.348;2023-03-01T20:34:43;23.43;;;14.37;;
17850;SDS011;9051;51.548;14.348;2023-03-01T20:37:15;21.43;;;13.60;;
17850;SDS011;9051;51.548;14.348;2023-03-01T20:39:48;20.37;;;12.43;;
17850;SDS011;9051;51.548;14.348;2023-03-01T20:42:20;20.27;;;12.73;;
17850;SDS011;9051;51.548;14.348;2023-03-01T20:44:53;21.37;;;12.43;;
17850;SDS011;9051;51.548;14.348;2023-03-01T20:47:25;21.20;;;12.53;;
17850;SDS011;9051;51.548;14.348;2023-03-01T20:49:56;21.10;;;13.07;;
17850;SDS011;9051;51.548;14.348;2023-03-01T20:52:30;22.57;;;13.47;;
17850;SDS011;9051;51.548;14.348;2023-03-01T20:55:04;24.03;;;13.00;;
17850;SDS011;9051;51.548;14.348;2023-03-01T20:57:37;21.00;;;12.40;;
17850;SDS011;9051;51.548;14.348;2023-03-01T21:00:10;23.00;;;14.80;;
17850;SDS011;9051;51.548;14.348;2023-03-01T21:02:42;23.83;;;13.63;;
17850;SDS011;9051;51.548;14.348;2023-03-01T21:05:14;24.27;;;13.87;;
17850;SDS011;9051;51.548;14.348;2023-03-01T21:07:46;22.83;;;14.90;;
17850;SDS011;9051;51.548;14.348;2023-03-01T21:10:20;27.77;;;15.63;;
17850;SDS011;9051;51.548;14.348;2023-03-01T21:12:51;25.63;;;14.67;;
17850;SDS011;9051;51.548;14.348;2023-03-01T21:15:23;23.67;;;14.47;;
17850;SDS011;9051;51.548;14.348;2023-03-01T21:17:57;26.50;;;15.70;;
17850;SDS011;9051;51.548;14.348;2023-03-01T21:20:30;22.43;;;14.60;;
17850;SDS011;9051;51.548;14.348;2023-03-01T21:23:02;26.00;;;15.47;;
17850;SDS011;9051;51.548;14.348;2023-03-01T21:25:36;28.10;;;15.87;;
17850;SDS011;9051;51.548;14.348;2023-03-01T21:28:10;25.73;;;15.83;;
17850;SDS011;9051;51.548;14.348;2023-03-01T21:30:42;23.70;;;15.53;;
17850;SDS011;9051;51.548;14.348;2023-03-01T21:33:14;29.13;;;17.03;;
17850;SDS011;9051;51.548;14.348;2023-03-01T21:35:46;26.87;;;15.93;;
17850;SDS011;9051;51.548;14.348;2023-03-01T21:38:18;26.17;;;16.03;;
17850;SDS011;9051;51.548;14.348;2023-03-01T21:40:51;22.30;;;14.77;;
17850;SDS011;9051;51.548;14.348;2023-03-01T21:43:23;22.67;;;15.23;;
17850;SDS011;9051;51.548;14.348;2023-03-01T21:45:55;24.20;;;15.23;;
17850;SDS011;9051;51.548;14.348;2023-03-01T21:48:30;21.10;;;14.23;;
17850;SDS011;9051;51.548;14.348;2023-03-01T21:51:03;23.00;;;14.63;;
17850;SDS011;9051;51.548;14.348;2023-03-01T21:53:35;25.67;;;15.80;;
17850;SDS011;9051;51.548;14.348;2023-03-01T21:56:09;21.13;;;14.47;;
17850;SDS011;9051;51.548;14.348;2023-03-01T21:58:46;23.47;;;13.80;;
17850;SDS011;9051;51.548;14.348;2023-03-01T22:01:20;23.23;;;14.40;;
17850;SDS011;9051;51.548;14.348;2023-03-01T22:03:55;26.67;;;15.43;;
17850;SDS011;9051;51.548;14.348;2023-03-01T22:06:28;27.73;;;15.00;;
17850;SDS011;9051;51.548;14.348;2023-03-01T22:09:03;24.30;;;14.93;;
17850;SDS011;9051;51.548;14.348;2023-03-01T22:11:39;24.33;;;14.67;;
17850;SDS011;9051;51.548;14.348;2023-03-01T22:14:13;21.77;;;14.10;;
17850;SDS011;9051;51.548;14.348;2023-03-01T22:16:46;23.50;;;14.60;;
17850;SDS011;9051;51.548;14.348;2023-03-01T22:19:20;25.57;;;15.23;;
17850;SDS011;9051;51.548;14.348;2023-03-01T22:21:52;24.63;;;15.57;;
17850;SDS011;9051;51.548;14.348;2023-03-01T22:24:24;26.57;;;16.43;;
17850;SDS011;9051;51.548;14.348;2023-03-01T22:26:57;26.47;;;15.73;;
17850;SDS011;9051;51.548;14.348;2023-03-01T22:29:29;25.23;;;15.70;;
17850;SDS011;9051;51.548;14.348;2023-03-01T22:32:01;29.10;;;16.77;;
17850;SDS011;9051;51.548;14.348;2023-03-01T22:34:33;25.13;;;15.40;;
17850;SDS011;9051;51.548;14.348;2023-03-01T22:37:05;27.57;;;16.13;;
17850;SDS011;9051;51.548;14.348;2023-03-01T22:39:38;26.23;;;16.47;;
17850;SDS011;9051;51.548;14.348;2023-03-01T22:42:11;28.70;;;16.43;;
17850;SDS011;9051;51.548;14.348;2023-03-01T22:44:43;22.87;;;15.57;;
17850;SDS011;9051;51.548;14.348;2023-03-01T22:47:15;30.03;;;16.37;;
17850;SDS011;9051;51.548;14.348;2023-03-01T22:49:47;23.93;;;15.33;;
17850;SDS011;9051;51.548;14.348;2023-03-01T22:52:19;25.73;;;16.13;;
17850;SDS011;9051;51.548;14.348;2023-03-01T22:54:52;24.03;;;16.57;;
17850;SDS011;9051;51.548;14.348;2023-03-01T22:57:26;25.57;;;15.93;;
17850;SDS011;9051;51.548;14.348;2023-03-01T22:59:57;26.73;;;15.70;;
17850;SDS011;9051;51.548;14.348;2023-03-01T23:02:30;24.77;;;15.77;;
17850;SDS011;9051;51.548;14.348;2023-03-01T23:05:04;26.93;;;16.30;;
17850;SDS011;9051;51.548;14.348;2023-03-01T23:07:36;25.97;;;15.57;;
17850;SDS011;9051;51.548;14.348;2023-03-01T23:10:09;24.87;;;14.77;;
17850;SDS011;9051;51.548;14.348;2023-03-01T23:12:43;28.17;;;15.47;;
17850;SDS011;9051;51.548;14.348;2023-03-01T23:15:15;29.83;;;16.57;;
17850;SDS011;9051;51.548;14.348;2023-03-01T23:17:47;25.53;;;15.40;;
17850;SDS011;9051;51.548;14.348;2023-03-01T23:20:19;29.17;;;16.20;;
17850;SDS011;9051;51.548;14.348;2023-03-01T23:22:51;28.47;;;15.77;;
17850;SDS011;9051;51.548;14.348;2023-03-01T23:25:31;31.00;;;16.83;;
17850;SDS011;9051;51.548;14.348;2023-03-01T23:31:05;24.40;;;15.17;;
17850;SDS011;9051;51.548;14.348;2023-03-01T23:33:38;28.93;;;16.30;;
17850;SDS011;9051;51.548;14.348;2023-03-01T23:36:16;25.10;;;15.30;;
17850;SDS011;9051;51.548;14.348;2023-03-01T23:38:50;28.77;;;16.33;;
17850;SDS011;9051;51.548;14.348;2023-03-01T23:41:24;29.03;;;16.53;;
17850;SDS011;9051;51.548;14.348;2023-03-01T23:44:01;27.07;;;15.67;;
17850;SDS011;9051;51.548;14.348;2023-03-01T23:46:34;28.00;;;15.63;;
17850;SDS011;9051;51.548;14.348;2023-03-01T23:49:08;28.30;;;15.30;;
17850;SDS011;9051;51.548;14.348;2023-03-01T23:51:43;27.00;;;15.50;;
17850;SDS011;9051;51.548;14.348;2023-03-01T23:54:17;25.83;;;14.63;;
17850;SDS011;9051;51.548;14.348;2023-03-01T23:56:50;24.30;;;13.63;;
17850;SDS011;9051;51.548;14.348;2023-03-01T23:59:37;25.33;;;15.00;;
